createdAt,value
2023-01-29T00:02:13.894Z,94924.47
2023-01-29T00:04:41.601Z,94929.16
2023-01-29T00:07:08.812Z,94917.78
2023-01-29T00:09:36.414Z,94914.63
2023-01-29T00:12:03.428Z,94913.06
2023-01-29T00:14:30.155Z,94910.69
2023-01-29T00:17:00.903Z,94919.34
2023-01-29T00:19:28.131Z,94916.19
2023-01-29T00:21:56.057Z,94919.69
2023-01-29T00:24:23.176Z,94913.81
2023-01-29T00:26:49.989Z,94920.06
2023-01-29T00:29:17.575Z,94910.28
2023-01-29T00:31:45.620Z,94909.88
2023-01-29T00:34:12.556Z,94908.34
2023-01-29T00:36:39.394Z,94905.59
2023-01-29T00:39:12.250Z,94910.28
2023-01-29T00:41:40.587Z,94913.03
2023-01-29T00:44:07.359Z,94905.59
2023-01-29T00:46:34.483Z,94906.34
2023-01-29T00:49:01.659Z,94902.84
2023-01-29T00:51:28.412Z,94910.25
2023-01-29T00:53:56.730Z,94908.72
2023-01-29T00:56:23.779Z,94912.22
2023-01-29T00:58:53.652Z,94913.78
2023-01-29T01:01:21.809Z,94907.13
2023-01-29T01:03:49.022Z,94913.03
2023-01-29T01:06:21.923Z,94914.19
2023-01-29T01:08:48.800Z,94913.41
2023-01-29T01:11:16.785Z,94918.91
2023-01-29T01:13:43.597Z,94913.81
2023-01-29T01:16:11.961Z,94922.81
2023-01-29T01:18:41.835Z,94925.59
2023-01-29T01:21:08.748Z,94920.88
2023-01-29T01:23:36.605Z,94920.09
2023-01-29T01:26:07.030Z,94917.75
2023-01-29T01:28:33.776Z,94923.66
2023-01-29T01:31:08.489Z,94932.69
2023-01-29T01:33:35.475Z,94936.97
2023-01-29T01:36:02.536Z,94927.94
2023-01-29T01:38:29.250Z,94935.00
2023-01-29T01:40:56.444Z,94932.66
2023-01-29T01:43:24.187Z,94932.28
2023-01-29T01:45:52.336Z,94934.22
2023-01-29T01:48:24.402Z,94937.72
2023-01-29T01:50:54.508Z,94954.63
2023-01-29T01:53:26.842Z,94952.66
2023-01-29T01:55:57.281Z,94953.41
2023-01-29T01:58:32.377Z,94954.22
2023-01-29T02:01:02.687Z,94952.25
2023-01-29T02:03:35.728Z,94949.91
2023-01-29T02:06:02.450Z,94946.00
2023-01-29T02:08:43.899Z,94962.47
2023-01-29T02:11:10.862Z,94962.06
2023-01-29T02:13:37.632Z,94963.22
2023-01-29T02:16:05.167Z,94972.66
2023-01-29T02:18:32.557Z,94971.88
2023-01-29T02:21:40.095Z,94963.28
2023-01-29T02:24:44.582Z,94983.69
2023-01-29T02:27:14.241Z,94998.25
2023-01-29T02:29:59.206Z,95000.66
2023-01-29T02:32:47.771Z,94998.66
2023-01-29T02:35:28.630Z,95004.97
2023-01-29T02:38:29.291Z,95004.97
2023-01-29T02:41:08.264Z,95004.97
2023-01-29T02:43:50.359Z,95007.75
2023-01-29T02:46:28.044Z,95012.06
2023-01-29T02:49:35.074Z,95018.31
2023-01-29T02:52:17.453Z,95015.22
2023-01-29T02:54:51.797Z,95014.44
2023-01-29T02:57:23.230Z,95016.41
2023-01-29T02:59:55.865Z,95020.72
2023-01-29T03:02:27.142Z,95019.94
2023-01-29T03:04:58.171Z,95012.09
2023-01-29T03:07:31.901Z,95013.28
2023-01-29T03:09:59.151Z,95012.91
2023-01-29T03:12:26.816Z,95014.06
2023-01-29T03:14:53.903Z,95024.28
2023-01-29T03:17:21.888Z,95028.66
2023-01-29T03:19:48.973Z,95029.78
2023-01-29T03:22:18.682Z,95021.91
2023-01-29T03:24:51.480Z,95017.59
2023-01-29T03:27:18.928Z,95018.41
2023-01-29T03:29:46.186Z,95021.53
2023-01-29T03:32:13.001Z,95019.97
2023-01-29T03:34:41.766Z,95021.16
2023-01-29T03:37:47.996Z,95021.91
2023-01-29T03:40:18.120Z,95023.16
2023-01-29T03:43:01.986Z,95020.78
2023-01-29T03:45:36.384Z,95012.94
2023-01-29T03:48:15.564Z,95014.09
2023-01-29T03:51:07.469Z,95026.28
2023-01-29T03:54:19.872Z,95018.44
2023-01-29T03:57:20.271Z,95019.19
2023-01-29T04:00:13.913Z,95014.09
2023-01-29T04:03:09.456Z,95010.19
2023-01-29T04:05:54.715Z,95012.16
2023-01-29T04:08:25.881Z,95021.56
2023-01-29T04:10:52.970Z,95017.66
2023-01-29T04:13:20.184Z,95011.34
2023-01-29T04:15:49.373Z,95006.28
2023-01-29T04:18:19.047Z,95011.31
2023-01-29T04:20:45.781Z,95012.91
2023-01-29T04:23:24.605Z,95019.22
2023-01-29T04:25:56.597Z,95016.84
2023-01-29T04:28:45.705Z,95021.16
2023-01-29T04:31:57.231Z,95009.78
2023-01-29T04:34:50.368Z,95013.28
2023-01-29T04:37:22.804Z,95007.75
2023-01-29T04:40:10.489Z,95007.38
2023-01-29T04:42:43.687Z,95007.00
2023-01-29T04:45:18.678Z,95007.78
2023-01-29T04:48:04.350Z,95009.28
2023-01-29T04:50:41.573Z,95006.16
2023-01-29T04:53:42.278Z,95012.84
2023-01-29T04:59:39.331Z,95009.69
2023-01-29T05:02:09.537Z,95013.63
2023-01-29T05:04:36.630Z,95016.00
2023-01-29T05:07:04.756Z,95012.09
2023-01-29T05:09:32.082Z,95012.06
2023-01-29T05:11:58.900Z,95014.03
2023-01-29T05:14:28.825Z,95011.28
2023-01-29T05:16:55.678Z,95014.41
2023-01-29T05:19:22.457Z,95019.50
2023-01-29T05:21:50.307Z,95014.41
2023-01-29T05:24:27.216Z,95018.75
2023-01-29T05:26:54.623Z,95029.34
2023-01-29T05:29:22.712Z,95035.28
2023-01-29T05:35:12.644Z,95043.91
2023-01-29T05:37:40.604Z,95040.75
2023-01-29T05:40:08.258Z,95045.00
2023-01-29T05:42:35.287Z,95047.34
2023-01-29T05:45:02.332Z,95063.84
2023-01-29T05:47:29.472Z,95060.72
2023-01-29T05:49:56.574Z,95057.59
2023-01-29T05:52:26.435Z,95074.13
2023-01-29T05:54:53.363Z,95079.59
2023-01-29T05:57:20.336Z,95078.81
2023-01-29T05:59:47.414Z,95089.03
2023-01-29T06:02:14.572Z,95088.25
2023-01-29T06:04:42.049Z,95096.50
2023-01-29T06:07:08.824Z,95091.78
2023-01-29T06:09:36.297Z,95098.88
2023-01-29T06:12:03.759Z,95102.41
2023-01-29T06:14:30.464Z,95109.50
2023-01-29T06:16:57.250Z,95109.13
2023-01-29T06:19:23.915Z,95110.72
2023-01-29T06:21:50.691Z,95109.88
2023-01-29T06:24:17.592Z,95111.16
2023-01-29T06:26:44.748Z,95110.78
2023-01-29T06:29:11.916Z,95115.03
2023-01-29T06:31:41.951Z,95123.63
2023-01-29T06:34:08.786Z,95129.13
2023-01-29T06:36:35.819Z,95130.38
2023-01-29T06:39:02.794Z,95137.44
2023-01-29T06:41:29.821Z,95140.25
2023-01-29T06:43:57.533Z,95144.91
2023-01-29T06:46:24.888Z,95147.25
2023-01-29T06:48:52.834Z,95152.31
2023-01-29T06:51:19.943Z,95146.09
2023-01-29T06:53:47.048Z,95151.97
2023-01-29T06:56:15.118Z,95152.75
2023-01-29T06:58:44.131Z,95143.25
2023-01-29T07:01:29.221Z,95152.75
2023-01-29T07:04:01.116Z,95150.38
2023-01-29T07:06:28.991Z,95154.31
2023-01-29T07:08:56.090Z,95157.41
2023-01-29T07:11:22.817Z,95162.19
2023-01-29T07:13:50.360Z,95167.63
2023-01-29T07:16:17.560Z,95174.38
2023-01-29T07:18:48.621Z,95171.63
2023-01-29T07:21:16.608Z,95166.88
2023-01-29T07:23:44.197Z,95165.72
2023-01-29T07:26:11.347Z,95165.41
2023-01-29T07:28:38.800Z,95168.16
2023-01-29T07:31:05.829Z,95169.44
2023-01-29T07:33:33.166Z,95163.50
2023-01-29T07:35:59.878Z,95156.09
2023-01-29T07:38:31.813Z,95160.41
2023-01-29T07:40:59.050Z,95153.78
2023-01-29T07:43:26.307Z,95145.16
2023-01-29T07:45:53.443Z,95146.34
2023-01-29T07:48:20.357Z,95145.44
2023-01-29T07:50:55.740Z,95144.25
2023-01-29T07:53:22.945Z,95146.16
2023-01-29T07:55:50.044Z,95155.19
2023-01-29T07:58:17.185Z,95144.69
2023-01-29T08:00:44.339Z,95148.69
2023-01-29T08:03:13.294Z,95154.53
2023-01-29T08:05:40.439Z,95149.03
2023-01-29T08:08:08.088Z,95149.47
2023-01-29T08:10:40.465Z,95138.09
2023-01-29T08:13:07.271Z,95143.59
2023-01-29T08:15:34.361Z,95149.47
2023-01-29T08:18:03.871Z,95150.63
2023-01-29T08:20:31.033Z,95151.44
2023-01-29T08:23:05.318Z,95150.69
2023-01-29T08:25:38.960Z,95146.34
2023-01-29T08:28:06.063Z,95152.63
2023-01-29T08:30:33.841Z,95159.31
2023-01-29T08:33:00.833Z,95154.66
2023-01-29T08:35:27.776Z,95160.94
2023-01-29T08:37:55.688Z,95159.75
2023-01-29T08:40:23.226Z,95150.69
2023-01-29T08:42:50.301Z,95161.75
2023-01-29T08:45:17.860Z,95161.28
2023-01-29T08:47:48.161Z,95157.38
2023-01-29T08:50:16.199Z,95163.72
2023-01-29T08:52:44.748Z,95173.56
2023-01-29T08:55:14.784Z,95175.94
2023-01-29T08:57:41.868Z,95175.53
2023-01-29T09:00:10.001Z,95181.44
2023-01-29T09:02:37.365Z,95168.84
2023-01-29T09:05:04.930Z,95166.78
2023-01-29T09:07:32.334Z,95167.22
2023-01-29T09:09:59.433Z,95172.72
2023-01-29T09:12:26.315Z,95174.16
2023-01-29T09:14:53.429Z,95165.69
2023-01-29T09:17:20.680Z,95171.59
2023-01-29T09:19:47.420Z,95173.47
2023-01-29T09:22:14.129Z,95185.28
2023-01-29T09:24:41.472Z,95168.16
2023-01-29T09:27:08.249Z,95187.56
2023-01-29T09:29:36.001Z,95177.50
2023-01-29T09:32:04.347Z,95181.47
2023-01-29T09:34:31.055Z,95181.06
2023-01-29T09:36:58.535Z,95183.09
2023-01-29T09:39:25.295Z,95183.25
2023-01-29T09:41:59.473Z,95189.16
2023-01-29T09:44:53.913Z,95191.56
2023-01-29T09:47:22.741Z,95188.41
2023-01-29T09:50:10.868Z,95194.84
2023-01-29T09:56:21.483Z,95203.59
2023-01-29T09:58:48.610Z,95209.47
2023-01-29T10:01:48.101Z,95217.69
2023-01-29T10:04:51.506Z,95223.72
2023-01-29T10:07:43.336Z,95227.31
2023-01-29T10:10:23.941Z,95229.66
2023-01-29T10:12:50.692Z,95237.75
2023-01-29T10:15:38.770Z,95240.72
2023-01-29T10:18:29.131Z,95244.16
2023-01-29T10:24:07.481Z,95246.81
2023-01-29T10:26:34.445Z,95246.03
2023-01-29T10:29:01.240Z,95249.94
2023-01-29T10:31:33.173Z,95251.88
2023-01-29T10:34:24.001Z,95242.09
2023-01-29T10:36:50.780Z,95239.66
2023-01-29T10:39:25.549Z,95244.47
2023-01-29T10:42:16.128Z,95240.13
2023-01-29T10:45:10.640Z,95240.91
2023-01-29T10:48:14.503Z,95245.19
2023-01-29T10:51:02.013Z,95242.88
2023-01-29T10:53:41.819Z,95242.81
2023-01-29T10:56:28.902Z,95239.31
2023-01-29T10:59:03.358Z,95240.50
2023-01-29T11:01:30.496Z,95237.28
2023-01-29T11:03:59.632Z,95231.47
2023-01-29T11:06:44.849Z,95232.00
2023-01-29T11:09:42.958Z,95230.59
2023-01-29T11:12:30.863Z,95232.00
2023-01-29T11:15:06.843Z,95228.78
2023-01-29T11:17:34.465Z,95228.94
2023-01-29T11:20:01.530Z,95228.66
2023-01-29T11:22:29.884Z,95226.69
2023-01-29T11:25:19.025Z,95227.50
2023-01-29T11:27:49.369Z,95224.38
2023-01-29T11:30:32.392Z,95229.88
2023-01-29T11:33:10.076Z,95227.75
2023-01-29T11:35:39.770Z,95223.47
2023-01-29T11:38:28.751Z,95222.34
2023-01-29T11:41:06.552Z,95213.72
2023-01-29T11:43:34.283Z,95212.16
2023-01-29T11:46:11.680Z,95208.63
2023-01-29T11:48:46.544Z,95209.19
2023-01-29T11:51:21.508Z,95200.22
2023-01-29T11:54:10.236Z,95199.91
2023-01-29T11:56:43.216Z,95209.03
2023-01-29T11:59:42.875Z,95205.41
2023-01-29T12:02:54.209Z,95200.53
2023-01-29T12:05:25.133Z,95199.72
2023-01-29T12:07:54.013Z,95201.41
2023-01-29T12:10:48.400Z,95195.53
2023-01-29T12:13:25.826Z,95198.66
2023-01-29T12:16:09.181Z,95189.72
2023-01-29T12:18:38.362Z,95190.22
2023-01-29T12:21:33.663Z,95181.75
2023-01-29T12:24:49.224Z,95181.22
2023-01-29T12:27:36.930Z,95180.78
2023-01-29T12:30:44.099Z,95172.88
2023-01-29T12:33:51.356Z,95170.41
2023-01-29T12:36:24.073Z,95172.00
2023-01-29T12:38:50.777Z,95166.88
2023-01-29T12:41:57.327Z,95167.97
2023-01-29T12:44:48.995Z,95156.19
2023-01-29T12:47:27.143Z,95165.25
2023-01-29T12:49:57.096Z,95162.03
2023-01-29T12:52:46.311Z,95152.69
2023-01-29T12:55:16.405Z,95154.34
2023-01-29T12:58:14.971Z,95148.38
2023-01-29T13:00:46.237Z,95147.13
2023-01-29T13:03:39.702Z,95152.13
2023-01-29T13:06:08.276Z,95145.44
2023-01-29T13:08:54.161Z,95143.56
2023-01-29T13:11:30.687Z,95144.56
2023-01-29T13:14:08.992Z,95154.34
2023-01-29T13:16:47.495Z,95143.78
2023-01-29T13:19:38.817Z,95149.44
2023-01-29T13:22:20.309Z,95156.13
2023-01-29T13:25:02.286Z,95148.91
2023-01-29T13:27:31.613Z,95149.81
2023-01-29T13:30:03.650Z,95144.84
2023-01-29T13:32:31.850Z,95144.56
2023-01-29T13:35:22.075Z,95149.25
2023-01-29T13:37:50.875Z,95146.19
2023-01-29T13:40:25.732Z,95147.03
2023-01-29T13:42:57.280Z,95140.06
2023-01-29T13:45:36.158Z,95151.75
2023-01-29T13:48:26.280Z,95150.34
2023-01-29T13:50:53.895Z,95146.69
2023-01-29T13:53:23.381Z,95154.66
2023-01-29T13:55:50.895Z,95146.28
2023-01-29T13:58:38.577Z,95143.53
2023-01-29T14:01:05.748Z,95138.84
2023-01-29T14:04:03.853Z,95139.22
2023-01-29T14:06:40.115Z,95134.97
2023-01-29T14:09:37.955Z,95139.78
2023-01-29T14:12:36.425Z,95141.81
2023-01-29T14:15:16.865Z,95146.50
2023-01-29T14:18:05.670Z,95151.91
2023-01-29T14:20:48.726Z,95152.34
2023-01-29T14:23:23.692Z,95152.97
2023-01-29T14:25:50.485Z,95153.22
2023-01-29T14:28:43.227Z,95158.44
2023-01-29T14:31:10.472Z,95160.66
2023-01-29T14:33:39.867Z,95158.56
2023-01-29T14:36:12.696Z,95158.97
2023-01-29T14:38:40.394Z,95154.16
2023-01-29T14:41:28.771Z,95172.19
2023-01-29T14:44:40.360Z,95170.66
2023-01-29T14:47:17.797Z,95173.50
2023-01-29T14:49:57.894Z,95164.78
2023-01-29T14:52:37.471Z,95166.38
2023-01-29T14:55:08.038Z,95180.66
2023-01-29T14:57:35.100Z,95167.19
2023-01-29T15:00:18.528Z,95170.41
2023-01-29T15:02:45.698Z,95164.84
2023-01-29T15:05:17.626Z,95173.47
2023-01-29T15:07:57.245Z,95169.19
2023-01-29T15:10:33.488Z,95168.31
2023-01-29T15:13:22.788Z,95164.84
2023-01-29T15:15:57.201Z,95165.69
2023-01-29T15:18:34.777Z,95160.13
2023-01-29T15:21:04.666Z,95158.56
2023-01-29T15:23:42.801Z,95156.94
2023-01-29T15:26:17.488Z,95154.28
2023-01-29T15:28:47.251Z,95138.53
2023-01-29T15:31:18.676Z,95135.25
2023-01-29T15:33:45.976Z,95142.94
2023-01-29T15:36:18.937Z,95135.84
2023-01-29T15:38:45.689Z,95141.06
2023-01-29T15:41:20.160Z,95143.47
2023-01-29T15:43:48.408Z,95141.56
2023-01-29T15:46:27.120Z,95131.66
2023-01-29T15:48:54.616Z,95136.91
2023-01-29T15:51:24.055Z,95142.63
2023-01-29T15:54:01.878Z,95135.16
2023-01-29T15:56:37.400Z,95145.59
2023-01-29T15:59:09.389Z,95145.31
2023-01-29T16:01:36.665Z,95151.50
2023-01-29T16:04:03.482Z,95150.31
2023-01-29T16:06:35.962Z,95152.81
2023-01-29T16:09:03.352Z,95157.91
2023-01-29T16:11:30.327Z,95152.31
2023-01-29T16:13:57.012Z,95153.03
2023-01-29T16:16:24.428Z,95159.63
2023-01-29T16:18:59.532Z,95164.19
2023-01-29T16:21:35.218Z,95165.41
2023-01-29T16:24:01.773Z,95161.84
2023-01-29T16:26:30.614Z,95163.63
2023-01-29T16:28:57.379Z,95163.69
2023-01-29T16:31:27.098Z,95165.28
2023-01-29T16:33:54.432Z,95164.91
2023-01-29T16:36:23.103Z,95155.44
2023-01-29T16:39:11.094Z,95164.88
2023-01-29T16:41:37.812Z,95171.97
2023-01-29T16:44:16.771Z,95172.34
2023-01-29T16:46:47.568Z,95175.13
2023-01-29T16:49:28.999Z,95171.97
2023-01-29T16:51:55.725Z,95172.75
2023-01-29T16:54:25.890Z,95176.66
2023-01-29T16:56:54.396Z,95170.16
2023-01-29T16:59:23.636Z,95171.72
2023-01-29T17:01:50.871Z,95172.50
2023-01-29T17:04:18.055Z,95176.22
2023-01-29T17:06:46.525Z,95174.56
2023-01-29T17:09:28.538Z,95170.56
2023-01-29T17:11:59.540Z,95175.53
2023-01-29T17:14:26.584Z,95165.75
2023-01-29T17:17:03.814Z,95169.88
2023-01-29T17:19:30.675Z,95169.06
2023-01-29T17:21:57.506Z,95170.38
2023-01-29T17:24:24.276Z,95177.81
2023-01-29T17:26:51.108Z,95182.75
2023-01-29T17:29:21.079Z,95190.13
2023-01-29T17:31:47.790Z,95194.81
2023-01-29T17:34:14.893Z,95193.97
2023-01-29T17:36:45.016Z,95191.94
2023-01-29T17:39:23.608Z,95200.59
2023-01-29T17:41:51.512Z,95211.19
2023-01-29T17:44:20.358Z,95199.38
2023-01-29T17:46:48.399Z,95204.00
2023-01-29T17:49:27.821Z,95209.44
2023-01-29T17:52:01.806Z,95209.84
2023-01-29T17:54:31.511Z,95206.22
2023-01-29T17:56:59.775Z,95202.28
2023-01-29T17:59:31.361Z,95209.34
2023-01-29T18:01:58.681Z,95210.09
2023-01-29T18:04:28.524Z,95217.13
2023-01-29T18:06:55.364Z,95218.22
2023-01-29T18:09:22.523Z,95216.63
2023-01-29T18:11:49.776Z,95212.69
2023-01-29T18:14:16.634Z,95209.91
2023-01-29T18:16:43.697Z,95214.56
2023-01-29T18:19:13.156Z,95214.13
2023-01-29T18:21:50.763Z,95213.28
2023-01-29T18:24:18.373Z,95218.41
2023-01-29T18:26:45.594Z,95203.91
2023-01-29T18:29:13.844Z,95201.94
2023-01-29T18:31:43.386Z,95208.97
2023-01-29T18:34:10.196Z,95208.13
2023-01-29T18:36:37.793Z,95217.09
2023-01-29T18:39:05.026Z,95210.38
2023-01-29T18:41:32.495Z,95208.41
2023-01-29T18:43:59.780Z,95214.25
2023-01-29T18:46:27.123Z,95198.53
2023-01-29T18:48:54.187Z,95202.81
2023-01-29T18:51:20.886Z,95200.81
2023-01-29T18:53:52.487Z,95196.09
2023-01-29T18:56:20.246Z,95200.00
2023-01-29T18:58:52.129Z,95199.91
2023-01-29T19:01:22.191Z,95206.13
2023-01-29T19:03:49.018Z,95196.38
2023-01-29T19:06:15.912Z,95199.09
2023-01-29T19:08:43.665Z,95191.88
2023-01-29T19:11:11.709Z,95198.97
2023-01-29T19:13:38.545Z,95199.72
2023-01-29T19:16:16.427Z,95200.00
2023-01-29T19:18:44.026Z,95208.94
2023-01-29T19:21:14.873Z,95203.50
2023-01-29T19:23:42.300Z,95199.56
2023-01-29T19:26:09.614Z,95197.25
2023-01-29T19:28:39.309Z,95199.56
2023-01-29T19:31:06.094Z,95203.06
2023-01-29T19:33:32.858Z,95213.25
2023-01-29T19:35:59.770Z,95213.63
2023-01-29T19:38:26.739Z,95211.69
2023-01-29T19:40:53.482Z,95208.53
2023-01-29T19:43:20.564Z,95213.91
2023-01-29T19:45:56.545Z,95226.00
2023-01-29T19:48:23.362Z,95220.50
2023-01-29T19:51:00.854Z,95237.69
2023-01-29T19:53:28.662Z,95233.84
2023-01-29T19:56:03.295Z,95226.78
2023-01-29T19:58:30.286Z,95242.41
2023-01-29T20:01:02.233Z,95241.72
2023-01-29T20:03:29.064Z,95240.88
2023-01-29T20:05:56.584Z,95240.50
2023-01-29T20:08:23.643Z,95243.69
2023-01-29T20:10:50.462Z,95246.75
2023-01-29T20:13:17.256Z,95244.34
2023-01-29T20:15:47.696Z,95248.59
2023-01-29T20:18:14.421Z,95247.38
2023-01-29T20:20:46.347Z,95244.16
2023-01-29T20:23:25.055Z,95253.19
2023-01-29T20:26:02.470Z,95245.66
2023-01-29T20:28:29.377Z,95257.38
2023-01-29T20:30:56.147Z,95255.88
2023-01-29T20:33:23.454Z,95254.31
2023-01-29T20:35:58.012Z,95257.81
2023-01-29T20:38:26.488Z,95265.22
2023-01-29T20:41:13.713Z,95266.69
2023-01-29T20:43:40.635Z,95265.16
2023-01-29T20:46:07.601Z,95265.53
2023-01-29T20:48:34.458Z,95259.97
2023-01-29T20:51:09.270Z,95271.66
2023-01-29T20:53:36.350Z,95263.44
2023-01-29T20:56:04.621Z,95269.31
2023-01-29T20:58:31.761Z,95274.09
2023-01-29T21:00:58.535Z,95278.41
2023-01-29T21:03:25.807Z,95280.38
2023-01-29T21:05:52.637Z,95279.56
2023-01-29T21:08:19.327Z,95277.22
2023-01-29T21:10:47.709Z,95280.28
2023-01-29T21:13:14.523Z,95280.94
2023-01-29T21:15:43.502Z,95278.44
2023-01-29T21:18:13.157Z,95282.47
2023-01-29T21:20:40.058Z,95283.09
2023-01-29T21:23:25.859Z,95278.81
2023-01-29T21:25:52.618Z,95275.28
2023-01-29T21:28:19.360Z,95275.75
2023-01-29T21:30:46.523Z,95274.97
2023-01-29T21:33:13.386Z,95277.25
2023-01-29T21:35:40.181Z,95280.69
2023-01-29T21:38:07.347Z,95288.53
2023-01-29T21:40:36.942Z,95288.91
2023-01-29T21:43:04.757Z,95281.44
2023-01-29T21:45:31.467Z,95268.81
2023-01-29T21:47:58.238Z,95270.03
2023-01-29T21:50:25.017Z,95273.53
2023-01-29T21:52:51.830Z,95271.91
2023-01-29T21:55:18.685Z,95270.28
2023-01-29T21:57:46.453Z,95275.34
2023-01-29T22:00:13.646Z,95268.75
2023-01-29T22:02:40.414Z,95265.22
2023-01-29T22:05:18.134Z,95268.69
2023-01-29T22:07:47.099Z,95270.25
2023-01-29T22:10:14.166Z,95260.00
2023-01-29T22:12:42.697Z,95259.34
2023-01-29T22:15:09.960Z,95266.50
2023-01-29T22:17:36.653Z,95266.94
2023-01-29T22:20:03.512Z,95254.63
2023-01-29T22:22:30.272Z,95257.63
2023-01-29T22:25:02.239Z,95260.06
2023-01-29T22:27:28.941Z,95251.53
2023-01-29T22:29:55.646Z,95257.06
2023-01-29T22:32:22.807Z,95253.28
2023-01-29T22:34:49.832Z,95250.22
2023-01-29T22:37:16.655Z,95247.94
2023-01-29T22:39:45.055Z,95242.13
2023-01-29T22:42:11.797Z,95240.34
2023-01-29T22:44:38.637Z,95242.38
2023-01-29T22:47:05.761Z,95227.88
2023-01-29T22:49:32.492Z,95230.31
2023-01-29T22:51:59.632Z,95227.38
2023-01-29T22:54:27.278Z,95213.28
2023-01-29T22:56:54.011Z,95215.25
2023-01-29T22:59:20.856Z,95209.47
2023-01-29T23:01:47.705Z,95197.75
2023-01-29T23:04:14.486Z,95194.44
2023-01-29T23:06:41.333Z,95195.13
2023-01-29T23:09:08.090Z,95193.63
2023-01-29T23:11:34.773Z,95193.66
2023-01-29T23:14:01.481Z,95186.53
2023-01-29T23:16:28.460Z,95179.78
2023-01-29T23:18:55.364Z,95176.53
2023-01-29T23:21:24.881Z,95176.84
2023-01-29T23:23:51.752Z,95174.38
2023-01-29T23:26:21.261Z,95180.28
2023-01-29T23:28:48.032Z,95171.63
2023-01-29T23:31:15.027Z,95165.47
2023-01-29T23:33:41.844Z,95173.53
2023-01-29T23:36:08.651Z,95173.50
2023-01-29T23:38:35.664Z,95166.38
2023-01-29T23:41:02.369Z,95161.56
2023-01-29T23:43:29.124Z,95159.66
2023-01-29T23:45:55.925Z,95163.59
2023-01-29T23:48:23.533Z,95162.53
2023-01-29T23:50:50.470Z,95150.75
2023-01-29T23:53:23.391Z,95142.19
2023-01-29T23:56:00.925Z,95151.75
2023-01-29T23:58:27.944Z,95146.22
